EDDNLOWI

Guest
Details From EDDN - Nurnberg
To LOWI - Innsbruck Kranebitten
Flight Number -
Tags Routegen
Created
Modified
Stats Distance 135 nm / 250 km
Max Altitude 0 ft / 0 m
Waypoints 2
Social Downloads 3
Likes 0
Share VATSIM

Download

Looking for another format? Having issues loading an existing format? Contact us
Advertisement - Login to hide

Notes

None

Route

EDDN LOWI

ID Type Via Altitude (ft/m) Position (lat/lon) Dist (leg/tot) Name
O EDDN APT - 0 / 0 49.50055 / 11.05918 - / 0 nm
O LOWI APT - 0 / 0 47.25883 / 11.33091 135 / 135 nm

Altitude Profile

Advertisement - Login to hide

EDDN

Details ICAO EDDN (NUE)
Name Nuernberg Airport
Region Germany - Civil
Timezone Europe/Berlin (UTC+2.0)
Stats Elevation 1,043 ft / 318 m (AMSL)
Location 49.498700° 11.077600°
Runways 1
Magnetic Variation 3.127° E

METAR

EDDN 221920Z 02008KT 350V050 9999 FEW007 BKN020 09/06 Q1030 NOSIG

Decode

TAF

TAF AMD EDDN 221853Z 2218/2318 35005KT 9999 BKN025 TEMPO 2218/2224 4000 -DZ BKN007 TEMPO 2300/2307 BKN008 BECMG 2306/2308 24010KT BECMG 2310/2313 26015G25KT TEMPO 2313/2318 28015G35KT

Decode

Departure Runways

ID Width Length Bearing (true/mag) Surface Threshold Overrun Markings Lighting
10 148 ft / 45 m 8,835 ft / 2,693 m 98.58° / 95.46° ASPHALT 0 ft / 0 m 102 ft / 31 m PREC-APP CENTERLINE EDGE THRESHOLD ALSF-I REIL-OMNI
28 148 ft / 45 m 8,835 ft / 2,693 m 278.61° / 275.49° ASPHALT 0 ft / 0 m 108 ft / 33 m PREC-APP CENTERLINE EDGE THRESHOLD ALSF-II TDZ REIL-OMNI

LOWI

Details ICAO LOWI (INN)
Name Innsbruck Kranebitten
Region Austria
Timezone Europe/Vienna (UTC+2.0)
Stats Elevation 1,905 ft / 581 m (AMSL)
Location 47.260200° 11.344000°
Runways 1
Magnetic Variation 3.122° E

METAR

LOWI 221850Z VRB02KT CAVOK 06/02 Q1029 NOSIG

Decode

TAF

TAF LOWI 221715Z 2218/2318 27003KT CAVOK TX14/2314Z TNM01/2305Z BECMG 2309/2311 09007KT 9999 FEW070 BKN300

Decode

Destination Runways

ID Width Length Bearing (true/mag) Surface Threshold Overrun Markings Lighting
08 148 ft / 45 m 6,544 ft / 1,995 m 80.93° / 77.81° ASPHALT 338 ft / 103 m 0 ft / 0 m PREC-APP CENTERLINE REIL-OMNI
26 148 ft / 45 m 6,544 ft / 1,995 m 260.95° / 257.83° ASPHALT 0 ft / 0 m 0 ft / 0 m PREC-APP CENTERLINE MALS REIL-OMNI

Approach Navaids

Runway Type Ident Frequency Range Bearing (true/mag) Slope Elevation
26 GS OEV 111.10 MHz 18 nm / 33 km 261.03° / 257.91 ° 3.50° 1,911 ft / 582 m (AMSL)
26 OM OM - - 105.00° / 101.88 ° - 6,726 ft / 2,050 m (AMSL)
26 MM MM - - 256.00° / 252.88 ° - 1,906 ft / 581 m (AMSL)
26 DME OEJ 109.70 MHz 30 nm / 56 km - - 1,906 ft / 581 m (AMSL)
26 DME OEV 111.10 MHz 27 nm / 50 km - - 1,911 ft / 582 m (AMSL)
26 LOC-ILS OEV 111.10 MHz 27 nm / 50 km 261.03° / 257.91 ° - 1,906 ft / 581 m (AMSL)
26 LOC-LOC OEJ 109.70 MHz 30 nm / 56 km 69.00° / 65.88 ° - 1,906 ft / 581 m (AMSL)

Popular Alternatives